UAE721 OMDB-HKJK
Flight info
| Callsign | UAE721 |
|---|---|
| Flight time | 4h 38m |
| Altitude | 34000 |
| Route | ANVIX R401 GIDIS G783 ELUDA/N0482F360 G783 UKRAG/N0484F370 L710 KUKDI/N0482F360 B400 RIGAM B403 ODBEN/N0484F380 B403 BOMIX UB403 MAV UP312 WAV WAJI1A |
| Aircraft | B77W/H-SDE1E2E3FGHIJ2J3J4J5M1RWXY/LB1D1 |
Departure
| Time | 2026-04-25 17:05 |
|---|---|
| Airport | Dubai International Airport (OMDB) |
Arrival
| Time | 2026-04-25 21:43 |
|---|---|
| Airport | Jomo Kenyatta International Airport (HKJK) |
| Time | Latitude | Longitude | Altitude | Speed | Heading |
|---|---|---|---|---|---|
| 2026-04-25 16:17 | 25.25514 | 55.35130 | 47 ft | 0 kts | 211° |
| 2026-04-25 16:49 | 25.25519 | 55.35133 | 48 ft | 2 kts | 211° |
| 2026-04-25 16:49 | 25.25533 | 55.35143 | 48 ft | 3 kts | 218° |
| 2026-04-25 16:50 | 25.25547 | 55.35158 | 48 ft | 3 kts | 234° |
| 2026-04-25 16:50 | 25.25557 | 55.35179 | 48 ft | 3 kts | 252° |
| 2026-04-25 16:50 | 25.25561 | 55.35201 | 48 ft | 3 kts | 269° |
| 2026-04-25 16:50 | 25.25559 | 55.35223 | 48 ft | 3 kts | 284° |
| 2026-04-25 16:51 | 25.25551 | 55.35244 | 48 ft | 3 kts | 299° |
| 2026-04-25 16:51 | 25.25549 | 55.35248 | 48 ft | 0 kts | 301° |
| 2026-04-25 16:54 | 25.25560 | 55.35231 | 48 ft | 9 kts | 308° |
| 2026-04-25 16:55 | 25.25637 | 55.35147 | 48 ft | 18 kts | 345° |
| 2026-04-25 16:55 | 25.25726 | 55.35185 | 48 ft | 11 kts | 37° |
| 2026-04-25 16:55 | 25.25794 | 55.35237 | 48 ft | 16 kts | 32° |
| 2026-04-25 16:55 | 25.25895 | 55.35302 | 48 ft | 15 kts | 30° |
| 2026-04-25 16:56 | 25.25967 | 55.35364 | 48 ft | 11 kts | 57° |
| 2026-04-25 16:56 | 25.25990 | 55.35451 | 48 ft | 14 kts | 84° |
| 2026-04-25 16:56 | 25.25982 | 55.35538 | 48 ft | 9 kts | 112° |
| 2026-04-25 16:56 | 25.25937 | 55.35627 | 48 ft | 17 kts | 122° |
| 2026-04-25 16:57 | 25.25879 | 55.35727 | 48 ft | 13 kts | 122° |
| 2026-04-25 16:57 | 25.25865 | 55.35753 | 48 ft | 12 kts | 121° |
| 2026-04-25 16:57 | 25.25762 | 55.35940 | 48 ft | 18 kts | 121° |
| 2026-04-25 16:57 | 25.25701 | 55.36049 | 48 ft | 16 kts | 121° |
| 2026-04-25 16:58 | 25.25645 | 55.36150 | 48 ft | 16 kts | 121° |
| 2026-04-25 16:58 | 25.25593 | 55.36244 | 48 ft | 13 kts | 121° |
| 2026-04-25 16:58 | 25.25537 | 55.36346 | 48 ft | 18 kts | 121° |
| 2026-04-25 16:58 | 25.25478 | 55.36455 | 48 ft | 14 kts | 121° |
| 2026-04-25 16:59 | 25.25424 | 55.36556 | 48 ft | 14 kts | 121° |
| 2026-04-25 16:59 | 25.25361 | 55.36665 | 48 ft | 21 kts | 122° |
| 2026-04-25 16:59 | 25.25291 | 55.36788 | 48 ft | 17 kts | 122° |
| 2026-04-25 16:59 | 25.25213 | 55.36928 | 48 ft | 22 kts | 122° |
| 2026-04-25 17:00 | 25.25142 | 55.37058 | 48 ft | 19 kts | 121° |
| 2026-04-25 17:00 | 25.25076 | 55.37178 | 48 ft | 17 kts | 121° |
| 2026-04-25 17:00 | 25.25011 | 55.37295 | 48 ft | 18 kts | 122° |
| 2026-04-25 17:00 | 25.24946 | 55.37410 | 48 ft | 20 kts | 122° |
| 2026-04-25 17:01 | 25.24897 | 55.37497 | 48 ft | 19 kts | 122° |
| 2026-04-25 17:01 | 25.24825 | 55.37630 | 48 ft | 12 kts | 121° |
| 2026-04-25 17:01 | 25.24795 | 55.37685 | 48 ft | 14 kts | 121° |
| 2026-04-25 17:01 | 25.24739 | 55.37789 | 48 ft | 9 kts | 121° |
| 2026-04-25 17:02 | 25.24689 | 55.37880 | 48 ft | 17 kts | 121° |
| 2026-04-25 17:02 | 25.24667 | 55.37922 | 48 ft | 5 kts | 116° |
| 2026-04-25 17:02 | 25.24670 | 55.37951 | 48 ft | 6 kts | 61° |
| 2026-04-25 17:02 | 25.24689 | 55.37966 | 48 ft | 4 kts | 32° |
| 2026-04-25 17:03 | 25.24771 | 55.38023 | 48 ft | 6 kts | 32° |
| 2026-04-25 17:03 | 25.24796 | 55.38033 | 48 ft | 5 kts | 358° |
| 2026-04-25 17:03 | 25.24817 | 55.38013 | 48 ft | 0 kts | 300° |
| 2026-04-25 17:04 | 25.24852 | 55.37948 | 48 ft | 22 kts | 301° |
| 2026-04-25 17:04 | 25.25054 | 55.37584 | 48 ft | 92 kts | 301° |
| 2026-04-25 17:04 | 25.25514 | 55.36759 | 48 ft | 160 kts | 301° |
| 2026-04-25 17:04 | 25.26153 | 55.35590 | 498 ft | 184 kts | 301° |
| 2026-04-25 17:05 | 25.26595 | 55.34766 | 1038 ft | 192 kts | 300° |
| 2026-04-25 17:05 | 25.27924 | 55.32004 | 2543 ft | 200 kts | 295° |
| 2026-04-25 17:05 | 25.28543 | 55.30588 | 3079 ft | 207 kts | 294° |
| 2026-04-25 17:06 | 25.28864 | 55.29037 | 3559 ft | 212 kts | 276° |
| 2026-04-25 17:06 | 25.28615 | 55.27374 | 3842 ft | 228 kts | 253° |
| 2026-04-25 17:06 | 25.27988 | 55.25791 | 4472 ft | 227 kts | 247° |
| 2026-04-25 17:06 | 25.27310 | 55.24230 | 5149 ft | 225 kts | 245° |
| 2026-04-25 17:07 | 25.26568 | 55.22717 | 5851 ft | 222 kts | 243° |
| 2026-04-25 17:07 | 25.25786 | 55.21260 | 6568 ft | 218 kts | 241° |
| 2026-04-25 17:07 | 25.24973 | 55.19864 | 7245 ft | 214 kts | 240° |
| 2026-04-25 17:07 | 25.24138 | 55.18524 | 7826 ft | 215 kts | 232° |
| 2026-04-25 17:08 | 25.22841 | 55.17626 | 8224 ft | 227 kts | 206° |
| 2026-04-25 17:08 | 25.21301 | 55.17339 | 8765 ft | 229 kts | 192° |
| 2026-04-25 17:08 | 25.19667 | 55.17210 | 9143 ft | 242 kts | 181° |
| 2026-04-25 17:08 | 25.18004 | 55.17886 | 9203 ft | 272 kts | 153° |
| 2026-04-25 17:09 | 25.16774 | 55.19530 | 9450 ft | 286 kts | 123° |
| 2026-04-25 17:09 | 25.15933 | 55.21477 | 10141 ft | 282 kts | 116° |
| 2026-04-25 17:09 | 25.15107 | 55.23481 | 10514 ft | 297 kts | 116° |
| 2026-04-25 17:09 | 25.14249 | 55.25654 | 10991 ft | 307 kts | 115° |
| 2026-04-25 17:10 | 25.13389 | 55.27830 | 11599 ft | 313 kts | 117° |
| 2026-04-25 17:10 | 25.12398 | 55.29953 | 12261 ft | 317 kts | 120° |
| 2026-04-25 17:10 | 25.11335 | 55.32099 | 12958 ft | 320 kts | 121° |
| 2026-04-25 17:10 | 25.10253 | 55.34264 | 13638 ft | 324 kts | 119° |
| 2026-04-25 17:11 | 25.09293 | 55.36527 | 14310 ft | 328 kts | 116° |
| 2026-04-25 17:11 | 25.08157 | 55.38690 | 14783 ft | 333 kts | 131° |
| 2026-04-25 17:11 | 25.06359 | 55.40338 | 15215 ft | 338 kts | 153° |
| 2026-04-25 17:11 | 25.04170 | 55.41391 | 15467 ft | 352 kts | 165° |
| 2026-04-25 17:12 | 25.01735 | 55.42047 | 15722 ft | 368 kts | 173° |
| 2026-04-25 17:12 | 24.99138 | 55.42504 | 16007 ft | 385 kts | 175° |
| 2026-04-25 17:12 | 24.96482 | 55.42944 | 16430 ft | 398 kts | 174° |
| 2026-04-25 17:12 | 24.93721 | 55.43459 | 16968 ft | 407 kts | 173° |
| 2026-04-25 17:13 | 24.90917 | 55.44053 | 17605 ft | 413 kts | 172° |
| 2026-04-25 17:13 | 24.89046 | 55.44487 | 18039 ft | 417 kts | 171° |
| 2026-04-25 17:13 | 24.85236 | 55.45439 | 18918 ft | 423 kts | 170° |
| 2026-04-25 17:13 | 24.82361 | 55.46187 | 19564 ft | 427 kts | 170° |
| 2026-04-25 17:14 | 24.79444 | 55.46943 | 20194 ft | 431 kts | 170° |
| 2026-04-25 17:14 | 24.76511 | 55.47700 | 20798 ft | 435 kts | 170° |
| 2026-04-25 17:14 | 24.73587 | 55.48452 | 21381 ft | 439 kts | 170° |
| 2026-04-25 17:14 | 24.70595 | 55.49219 | 21963 ft | 443 kts | 170° |
| 2026-04-25 17:15 | 24.67585 | 55.49991 | 22526 ft | 447 kts | 170° |
| 2026-04-25 17:15 | 24.64544 | 55.50769 | 23076 ft | 450 kts | 170° |
| 2026-04-25 17:15 | 24.61476 | 55.51554 | 23615 ft | 454 kts | 170° |
| 2026-04-25 17:15 | 24.58396 | 55.52341 | 24146 ft | 456 kts | 170° |
| 2026-04-25 17:16 | 24.55310 | 55.53133 | 24767 ft | 456 kts | 170° |
| 2026-04-25 17:16 | 24.52222 | 55.53924 | 25392 ft | 456 kts | 170° |
| 2026-04-25 17:16 | 24.49121 | 55.54716 | 26019 ft | 456 kts | 170° |
| 2026-04-25 17:16 | 24.46031 | 55.55503 | 26643 ft | 456 kts | 170° |
| 2026-04-25 17:17 | 24.42941 | 55.56290 | 27267 ft | 455 kts | 170° |
| 2026-04-25 17:17 | 24.39870 | 55.57072 | 27890 ft | 454 kts | 170° |
| 2026-04-25 17:17 | 24.36800 | 55.57853 | 28515 ft | 452 kts | 170° |
| 2026-04-25 17:17 | 24.33746 | 55.58630 | 29139 ft | 450 kts | 170° |
| 2026-04-25 17:18 | 24.30689 | 55.59407 | 29734 ft | 449 kts | 170° |
| 2026-04-25 17:18 | 24.27603 | 55.59958 | 29983 ft | 452 kts | 178° |
| 2026-04-25 17:18 | 24.21286 | 55.59479 | 29999 ft | 468 kts | 195° |
| 2026-04-25 17:19 | 24.14902 | 55.57415 | 29987 ft | 484 kts | 200° |
| 2026-04-25 17:19 | 24.08439 | 55.55356 | 30562 ft | 485 kts | 197° |
| 2026-04-25 17:20 | 24.05191 | 55.54430 | 31117 ft | 481 kts | 198° |
| 2026-04-25 17:20 | 24.01973 | 55.53490 | 31584 ft | 479 kts | 198° |
| 2026-04-25 17:20 | 23.98751 | 55.52532 | 32004 ft | 478 kts | 198° |
| 2026-04-25 17:20 | 23.95551 | 55.51578 | 32384 ft | 477 kts | 198° |
| 2026-04-25 17:21 | 23.92340 | 55.50623 | 32753 ft | 476 kts | 198° |
| 2026-04-25 17:21 | 23.89152 | 55.49675 | 33106 ft | 476 kts | 198° |
| 2026-04-25 17:21 | 23.85994 | 55.48737 | 33441 ft | 475 kts | 198° |
| 2026-04-25 17:21 | 23.82804 | 55.47787 | 33777 ft | 474 kts | 198° |
| 2026-04-25 17:22 | 23.79636 | 55.46838 | 34101 ft | 474 kts | 198° |
| 2026-04-25 17:22 | 23.77520 | 55.46206 | 34314 ft | 473 kts | 198° |
| 2026-04-25 17:22 | 23.73277 | 55.44941 | 34726 ft | 472 kts | 198° |
| 2026-04-25 17:22 | 23.70124 | 55.44003 | 34977 ft | 473 kts | 198° |
| 2026-04-25 17:23 | 23.63779 | 55.42117 | 34997 ft | 470 kts | 198° |
| 2026-04-25 17:23 | 23.57474 | 55.40245 | 34997 ft | 470 kts | 198° |
| 2026-04-25 17:24 | 23.51026 | 55.38976 | 34997 ft | 477 kts | 185° |
| 2026-04-25 17:24 | 23.47762 | 55.39206 | 34993 ft | 482 kts | 172° |
| 2026-04-25 17:24 | 23.44500 | 55.40281 | 34999 ft | 485 kts | 163° |
| 2026-04-25 17:25 | 23.38131 | 55.42581 | 34995 ft | 484 kts | 166° |
| 2026-04-25 17:25 | 23.31648 | 55.44556 | 34997 ft | 487 kts | 167° |
| 2026-04-25 17:26 | 23.25068 | 55.46598 | 34997 ft | 495 kts | 167° |
| 2026-04-25 17:26 | 23.18494 | 55.48669 | 34997 ft | 494 kts | 166° |
| 2026-04-25 17:27 | 23.11890 | 55.50751 | 34997 ft | 493 kts | 166° |
| 2026-04-25 17:27 | 23.07492 | 55.52136 | 34997 ft | 494 kts | 166° |
| 2026-04-25 17:28 | 22.98706 | 55.54861 | 34997 ft | 493 kts | 167° |
| 2026-04-25 17:28 | 22.92103 | 55.56876 | 34997 ft | 493 kts | 167° |
| 2026-04-25 17:29 | 22.85498 | 55.58898 | 34997 ft | 493 kts | 167° |
| 2026-04-25 17:29 | 22.78912 | 55.60905 | 34997 ft | 493 kts | 167° |
| 2026-04-25 17:30 | 22.72303 | 55.62917 | 34997 ft | 493 kts | 167° |
| 2026-04-25 17:30 | 22.65707 | 55.64924 | 34997 ft | 493 kts | 167° |
| 2026-04-25 17:31 | 22.59098 | 55.66941 | 34997 ft | 493 kts | 167° |
| 2026-04-25 17:31 | 22.52487 | 55.68973 | 34997 ft | 493 kts | 167° |
| 2026-04-25 17:32 | 22.45890 | 55.70994 | 34997 ft | 493 kts | 167° |
| 2026-04-25 17:32 | 22.39285 | 55.73013 | 34997 ft | 493 kts | 167° |
| 2026-04-25 17:33 | 22.32685 | 55.75028 | 34997 ft | 493 kts | 167° |
| 2026-04-25 17:33 | 22.26103 | 55.76939 | 34997 ft | 491 kts | 171° |
| 2026-04-25 17:34 | 22.19349 | 55.77907 | 34998 ft | 489 kts | 178° |
| 2026-04-25 17:34 | 22.12581 | 55.78482 | 34997 ft | 488 kts | 178° |
| 2026-04-25 17:35 | 22.05809 | 55.79128 | 34997 ft | 489 kts | 178° |
| 2026-04-25 17:35 | 21.99075 | 55.79803 | 34997 ft | 489 kts | 178° |
| 2026-04-25 17:36 | 21.92312 | 55.80483 | 34997 ft | 489 kts | 178° |
| 2026-04-25 17:36 | 21.85535 | 55.81163 | 34997 ft | 489 kts | 178° |
| 2026-04-25 17:37 | 21.78767 | 55.81842 | 34997 ft | 489 kts | 178° |
| 2026-04-25 17:37 | 21.72001 | 55.82519 | 34997 ft | 489 kts | 178° |
| 2026-04-25 17:38 | 21.66381 | 55.83074 | 34997 ft | 488 kts | 178° |
| 2026-04-25 17:38 | 21.58583 | 55.83836 | 34997 ft | 489 kts | 178° |
| 2026-04-25 17:39 | 21.51816 | 55.84500 | 34997 ft | 488 kts | 178° |
| 2026-04-25 17:39 | 21.45047 | 55.85161 | 34997 ft | 488 kts | 178° |
| 2026-04-25 17:40 | 21.38316 | 55.85817 | 34997 ft | 488 kts | 178° |
| 2026-04-25 17:40 | 21.31549 | 55.86476 | 34997 ft | 488 kts | 178° |
| 2026-04-25 17:41 | 21.24780 | 55.87133 | 34997 ft | 489 kts | 178° |
| 2026-04-25 17:41 | 21.18013 | 55.87784 | 34997 ft | 489 kts | 178° |
| 2026-04-25 17:42 | 21.11277 | 55.88433 | 34997 ft | 489 kts | 178° |
| 2026-04-25 17:42 | 21.04510 | 55.89083 | 34997 ft | 488 kts | 178° |
| 2026-04-25 17:43 | 20.97743 | 55.89732 | 34997 ft | 489 kts | 178° |
| 2026-04-25 17:43 | 20.90967 | 55.90381 | 34997 ft | 489 kts | 178° |
| 2026-04-25 17:44 | 20.84192 | 55.91035 | 34997 ft | 489 kts | 178° |
| 2026-04-25 17:44 | 20.77426 | 55.91700 | 34997 ft | 489 kts | 178° |
| 2026-04-25 17:45 | 20.72938 | 55.92141 | 34997 ft | 489 kts | 178° |
| 2026-04-25 17:45 | 20.63942 | 55.93023 | 34997 ft | 489 kts | 178° |
| 2026-04-25 17:46 | 20.57154 | 55.93691 | 34997 ft | 489 kts | 178° |
| 2026-04-25 17:46 | 20.50393 | 55.94354 | 34997 ft | 489 kts | 178° |
| 2026-04-25 17:47 | 20.43724 | 55.95006 | 34997 ft | 488 kts | 178° |
| 2026-04-25 17:47 | 20.36855 | 55.95677 | 34997 ft | 489 kts | 178° |
| 2026-04-25 17:48 | 20.26644 | 55.96664 | 34997 ft | 489 kts | 178° |
| 2026-04-25 17:49 | 20.19878 | 55.97308 | 34997 ft | 489 kts | 178° |
| 2026-04-25 17:49 | 20.13144 | 55.97949 | 34997 ft | 488 kts | 178° |
| 2026-04-25 17:50 | 20.07519 | 55.98474 | 34997 ft | 488 kts | 179° |
| 2026-04-25 17:50 | 19.99612 | 55.98734 | 34997 ft | 486 kts | 182° |
| 2026-04-25 17:51 | 19.92843 | 55.98801 | 34997 ft | 487 kts | 182° |
| 2026-04-25 17:51 | 19.86075 | 55.98945 | 34997 ft | 487 kts | 181° |
| 2026-04-25 17:52 | 19.79289 | 55.99107 | 34997 ft | 487 kts | 181° |
| 2026-04-25 17:52 | 19.72569 | 55.99269 | 34997 ft | 487 kts | 181° |
| 2026-04-25 17:53 | 19.65798 | 55.99433 | 34997 ft | 487 kts | 181° |
| 2026-04-25 17:53 | 19.59026 | 55.99597 | 34997 ft | 487 kts | 181° |
| 2026-04-25 17:54 | 19.52325 | 55.99508 | 34998 ft | 482 kts | 190° |
| 2026-04-25 17:54 | 19.45984 | 55.97473 | 34999 ft | 475 kts | 209° |
| 2026-04-25 17:55 | 19.40349 | 55.93853 | 34999 ft | 473 kts | 215° |
| 2026-04-25 17:55 | 19.34749 | 55.90183 | 34997 ft | 474 kts | 213° |
| 2026-04-25 17:56 | 19.29037 | 55.86691 | 34997 ft | 474 kts | 212° |
| 2026-04-25 17:56 | 19.23323 | 55.83237 | 34997 ft | 474 kts | 212° |
| 2026-04-25 17:57 | 19.17636 | 55.79798 | 34997 ft | 474 kts | 212° |
| 2026-04-25 17:57 | 19.11907 | 55.76334 | 34997 ft | 474 kts | 212° |
| 2026-04-25 17:58 | 19.06181 | 55.72874 | 34997 ft | 474 kts | 212° |
| 2026-04-25 17:58 | 19.00457 | 55.69429 | 34997 ft | 474 kts | 212° |
| 2026-04-25 17:59 | 18.94725 | 55.65985 | 34997 ft | 474 kts | 212° |
| 2026-04-25 17:59 | 18.88990 | 55.62542 | 34997 ft | 474 kts | 212° |
| 2026-04-25 18:00 | 18.83254 | 55.59099 | 34997 ft | 474 kts | 212° |
| 2026-04-25 18:00 | 18.77519 | 55.55660 | 34997 ft | 474 kts | 212° |
| 2026-04-25 18:01 | 18.71833 | 55.52242 | 34997 ft | 474 kts | 212° |
| 2026-04-25 18:01 | 18.66102 | 55.48801 | 34997 ft | 474 kts | 212° |
| 2026-04-25 18:02 | 18.60382 | 55.45366 | 34997 ft | 474 kts | 212° |
| 2026-04-25 18:02 | 18.54642 | 55.41931 | 34997 ft | 474 kts | 212° |
| 2026-04-25 18:03 | 18.48903 | 55.38502 | 34997 ft | 474 kts | 212° |
| 2026-04-25 18:03 | 18.43167 | 55.35078 | 34997 ft | 474 kts | 212° |
| 2026-04-25 18:04 | 18.37439 | 55.31661 | 34997 ft | 474 kts | 212° |
| 2026-04-25 18:04 | 18.31739 | 55.28253 | 34997 ft | 474 kts | 212° |
| 2026-04-25 18:05 | 18.26010 | 55.24836 | 34997 ft | 474 kts | 212° |
| 2026-04-25 18:05 | 18.20270 | 55.21416 | 34997 ft | 474 kts | 212° |
| 2026-04-25 18:06 | 18.14523 | 55.18004 | 34996 ft | 474 kts | 211° |
| 2026-04-25 18:06 | 18.08548 | 55.15038 | 34997 ft | 476 kts | 206° |
| 2026-04-25 18:07 | 18.02408 | 55.12405 | 34997 ft | 477 kts | 205° |
| 2026-04-25 18:07 | 17.96322 | 55.09756 | 34997 ft | 476 kts | 205° |
| 2026-04-25 18:08 | 17.90174 | 55.07021 | 34997 ft | 476 kts | 206° |
| 2026-04-25 18:08 | 17.84114 | 55.04312 | 34997 ft | 476 kts | 206° |
| 2026-04-25 18:09 | 17.77986 | 55.01562 | 34997 ft | 476 kts | 206° |
| 2026-04-25 18:09 | 17.71937 | 54.98852 | 34997 ft | 476 kts | 206° |
| 2026-04-25 18:10 | 17.65830 | 54.96120 | 34997 ft | 476 kts | 206° |
| 2026-04-25 18:10 | 17.59737 | 54.93397 | 34997 ft | 476 kts | 206° |
| 2026-04-25 18:11 | 17.53636 | 54.90668 | 34997 ft | 477 kts | 206° |
| 2026-04-25 18:11 | 17.47573 | 54.87961 | 34997 ft | 477 kts | 206° |
| 2026-04-25 18:12 | 17.41477 | 54.85244 | 34997 ft | 477 kts | 206° |
| 2026-04-25 18:12 | 17.35391 | 54.82535 | 34997 ft | 476 kts | 206° |
| 2026-04-25 18:13 | 17.29275 | 54.79812 | 34996 ft | 476 kts | 206° |
| 2026-04-25 18:13 | 17.23500 | 54.76591 | 34999 ft | 473 kts | 214° |
| 2026-04-25 18:14 | 17.15248 | 54.70960 | 34997 ft | 473 kts | 216° |
| 2026-04-25 18:14 | 17.09716 | 54.67229 | 34997 ft | 473 kts | 215° |
| 2026-04-25 18:15 | 17.04168 | 54.63520 | 34997 ft | 473 kts | 215° |
| 2026-04-25 18:15 | 16.98628 | 54.59823 | 34997 ft | 473 kts | 215° |
| 2026-04-25 18:16 | 16.93115 | 54.56146 | 34997 ft | 473 kts | 215° |
| 2026-04-25 18:17 | 16.84809 | 54.50607 | 34997 ft | 473 kts | 215° |
| 2026-04-25 18:17 | 16.79257 | 54.46907 | 34997 ft | 473 kts | 215° |
| 2026-04-25 18:18 | 16.73676 | 54.43191 | 34997 ft | 473 kts | 215° |
| 2026-04-25 18:18 | 16.68176 | 54.39529 | 34997 ft | 473 kts | 215° |
| 2026-04-25 18:19 | 16.62635 | 54.35844 | 34997 ft | 473 kts | 215° |
| 2026-04-25 18:19 | 16.57084 | 54.32144 | 34997 ft | 473 kts | 215° |
| 2026-04-25 18:20 | 16.51580 | 54.28476 | 34997 ft | 473 kts | 215° |
| 2026-04-25 18:20 | 16.46044 | 54.24795 | 34997 ft | 472 kts | 215° |
| 2026-04-25 18:21 | 16.41436 | 54.21734 | 34997 ft | 472 kts | 215° |
| 2026-04-25 18:21 | 16.35897 | 54.18057 | 34997 ft | 472 kts | 215° |
| 2026-04-25 18:22 | 16.30352 | 54.14380 | 34997 ft | 473 kts | 215° |
| 2026-04-25 18:22 | 16.23900 | 54.10103 | 34997 ft | 473 kts | 215° |
| 2026-04-25 18:23 | 16.18359 | 54.06433 | 34997 ft | 473 kts | 215° |
| 2026-04-25 18:23 | 16.13745 | 54.03375 | 34997 ft | 473 kts | 215° |
| 2026-04-25 18:24 | 16.08199 | 53.99701 | 34997 ft | 473 kts | 215° |
| 2026-04-25 18:24 | 16.02652 | 53.96036 | 34997 ft | 473 kts | 215° |
| 2026-04-25 18:25 | 15.97107 | 53.92376 | 34997 ft | 473 kts | 215° |
| 2026-04-25 18:25 | 15.91545 | 53.88706 | 34997 ft | 473 kts | 215° |
| 2026-04-25 18:26 | 15.86043 | 53.85065 | 34997 ft | 473 kts | 215° |
| 2026-04-25 18:26 | 15.80515 | 53.81369 | 34997 ft | 473 kts | 215° |
| 2026-04-25 18:27 | 15.74981 | 53.77672 | 34997 ft | 472 kts | 215° |
| 2026-04-25 18:27 | 15.69462 | 53.73983 | 34997 ft | 472 kts | 215° |
| 2026-04-25 18:28 | 15.63979 | 53.70311 | 34997 ft | 472 kts | 215° |
| 2026-04-25 18:28 | 15.58451 | 53.66625 | 34997 ft | 472 kts | 215° |
| 2026-04-25 18:29 | 15.50158 | 53.61100 | 34997 ft | 472 kts | 215° |
| 2026-04-25 18:30 | 15.39095 | 53.53815 | 34997 ft | 473 kts | 214° |
| 2026-04-25 18:30 | 15.33498 | 53.50251 | 34997 ft | 473 kts | 214° |
| 2026-04-25 18:31 | 15.27901 | 53.46676 | 34997 ft | 473 kts | 214° |
| 2026-04-25 18:31 | 15.22306 | 53.43100 | 34997 ft | 473 kts | 214° |
| 2026-04-25 18:32 | 15.16713 | 53.39525 | 34997 ft | 472 kts | 214° |
| 2026-04-25 18:32 | 15.11156 | 53.35967 | 34997 ft | 472 kts | 214° |
| 2026-04-25 18:33 | 15.05566 | 53.32389 | 34997 ft | 473 kts | 214° |
| 2026-04-25 18:33 | 14.99970 | 53.28813 | 34997 ft | 473 kts | 214° |
| 2026-04-25 18:34 | 14.94376 | 53.25243 | 34997 ft | 473 kts | 214° |
| 2026-04-25 18:34 | 14.88780 | 53.21666 | 34997 ft | 473 kts | 214° |
| 2026-04-25 18:35 | 14.83186 | 53.18100 | 34997 ft | 473 kts | 214° |
| 2026-04-25 18:35 | 14.77578 | 53.14530 | 34997 ft | 473 kts | 214° |
| 2026-04-25 18:36 | 14.72013 | 53.10990 | 34997 ft | 473 kts | 214° |
| 2026-04-25 18:36 | 14.66495 | 53.07309 | 34997 ft | 471 kts | 219° |
| 2026-04-25 18:37 | 14.61588 | 53.02857 | 34997 ft | 469 kts | 226° |
| 2026-04-25 18:37 | 14.57048 | 52.98041 | 34997 ft | 468 kts | 229° |
| 2026-04-25 18:38 | 14.52563 | 52.93174 | 34997 ft | 468 kts | 228° |
| 2026-04-25 18:38 | 14.48050 | 52.88384 | 34997 ft | 468 kts | 227° |
| 2026-04-25 18:39 | 14.43498 | 52.83594 | 34997 ft | 468 kts | 227° |
| 2026-04-25 18:39 | 14.38936 | 52.78793 | 34997 ft | 468 kts | 227° |
| 2026-04-25 18:40 | 14.34377 | 52.74000 | 34997 ft | 468 kts | 227° |
| 2026-04-25 18:40 | 14.29805 | 52.69204 | 34997 ft | 468 kts | 227° |
| 2026-04-25 18:41 | 14.25261 | 52.64445 | 34997 ft | 468 kts | 227° |
| 2026-04-25 18:41 | 14.20696 | 52.59666 | 34997 ft | 468 kts | 227° |
| 2026-04-25 18:42 | 14.16891 | 52.55685 | 34997 ft | 468 kts | 227° |
| 2026-04-25 18:42 | 14.11550 | 52.50101 | 34997 ft | 468 kts | 227° |
| 2026-04-25 18:43 | 14.07003 | 52.45350 | 34997 ft | 468 kts | 227° |
| 2026-04-25 18:43 | 14.02864 | 52.41028 | 34997 ft | 469 kts | 227° |
| 2026-04-25 18:44 | 13.98285 | 52.36249 | 34997 ft | 469 kts | 227° |
| 2026-04-25 18:44 | 13.93708 | 52.31475 | 34997 ft | 469 kts | 227° |
| 2026-04-25 18:45 | 13.89131 | 52.26704 | 34997 ft | 469 kts | 227° |
| 2026-04-25 18:45 | 13.84549 | 52.21932 | 34997 ft | 468 kts | 227° |
| 2026-04-25 18:46 | 13.79995 | 52.17189 | 34997 ft | 469 kts | 227° |
| 2026-04-25 18:46 | 13.75415 | 52.12415 | 34997 ft | 469 kts | 227° |
| 2026-04-25 18:47 | 13.70835 | 52.07649 | 34997 ft | 469 kts | 227° |
| 2026-04-25 18:47 | 13.66221 | 52.02856 | 34997 ft | 468 kts | 227° |
| 2026-04-25 18:48 | 13.61632 | 51.98094 | 34997 ft | 468 kts | 227° |
| 2026-04-25 18:48 | 13.57047 | 51.93337 | 34997 ft | 468 kts | 227° |
| 2026-04-25 18:49 | 13.52506 | 51.88599 | 34997 ft | 468 kts | 227° |
| 2026-04-25 18:49 | 13.47965 | 51.83813 | 34997 ft | 468 kts | 227° |
| 2026-04-25 18:50 | 13.43420 | 51.79026 | 34997 ft | 468 kts | 227° |
| 2026-04-25 18:50 | 13.38866 | 51.74235 | 34997 ft | 468 kts | 227° |
| 2026-04-25 18:51 | 13.35087 | 51.70261 | 34997 ft | 468 kts | 227° |
| 2026-04-25 18:51 | 13.29792 | 51.64691 | 34997 ft | 468 kts | 228° |
| 2026-04-25 18:52 | 13.25254 | 51.59906 | 34997 ft | 468 kts | 227° |
| 2026-04-25 18:52 | 13.20707 | 51.55123 | 34997 ft | 468 kts | 227° |
| 2026-04-25 18:53 | 13.16156 | 51.50341 | 34997 ft | 468 kts | 227° |
| 2026-04-25 18:53 | 13.11597 | 51.45555 | 34997 ft | 468 kts | 227° |
| 2026-04-25 18:54 | 13.04797 | 51.38422 | 34997 ft | 468 kts | 227° |
| 2026-04-25 18:55 | 13.00240 | 51.33644 | 34997 ft | 468 kts | 227° |
| 2026-04-25 18:55 | 12.95677 | 51.28864 | 34997 ft | 468 kts | 227° |
| 2026-04-25 18:56 | 12.91126 | 51.24098 | 34997 ft | 468 kts | 227° |
| 2026-04-25 18:56 | 12.86564 | 51.19324 | 34997 ft | 468 kts | 227° |
| 2026-04-25 18:57 | 12.82035 | 51.14575 | 34997 ft | 468 kts | 227° |
| 2026-04-25 18:57 | 12.77481 | 51.09814 | 34997 ft | 468 kts | 227° |
| 2026-04-25 18:58 | 12.72916 | 51.05048 | 34997 ft | 468 kts | 227° |
| 2026-04-25 18:58 | 12.66075 | 50.97909 | 34997 ft | 468 kts | 227° |
| 2026-04-25 18:59 | 12.56969 | 50.88429 | 34997 ft | 468 kts | 227° |
| 2026-04-25 19:00 | 12.50118 | 50.81307 | 34997 ft | 468 kts | 227° |
| 2026-04-25 19:01 | 12.43286 | 50.74208 | 34997 ft | 468 kts | 227° |
| 2026-04-25 19:01 | 12.38721 | 50.69463 | 34997 ft | 468 kts | 227° |
| 2026-04-25 19:02 | 12.31872 | 50.62329 | 34997 ft | 468 kts | 227° |
| 2026-04-25 19:03 | 12.26558 | 50.56818 | 34997 ft | 468 kts | 227° |
| 2026-04-25 19:03 | 12.20446 | 50.50483 | 34997 ft | 468 kts | 227° |
| 2026-04-25 19:04 | 12.13686 | 50.43323 | 34997 ft | 467 kts | 230° |
| 2026-04-25 19:05 | 12.05047 | 50.33404 | 34997 ft | 468 kts | 230° |
| 2026-04-25 19:06 | 12.00728 | 50.28491 | 34997 ft | 468 kts | 230° |
| 2026-04-25 19:06 | 11.94196 | 50.21083 | 34997 ft | 468 kts | 230° |
| 2026-04-25 19:07 | 11.87679 | 50.13679 | 34997 ft | 468 kts | 230° |
| 2026-04-25 19:08 | 11.81174 | 50.06309 | 34997 ft | 467 kts | 230° |
| 2026-04-25 19:09 | 11.73204 | 49.97289 | 34997 ft | 468 kts | 230° |
| 2026-04-25 19:10 | 11.65940 | 49.89077 | 34997 ft | 468 kts | 230° |
| 2026-04-25 19:10 | 11.61569 | 49.84138 | 34997 ft | 468 kts | 230° |
| 2026-04-25 19:11 | 11.57238 | 49.79236 | 34997 ft | 468 kts | 230° |
| 2026-04-25 19:11 | 11.52883 | 49.74322 | 34997 ft | 468 kts | 230° |
| 2026-04-25 19:12 | 11.48515 | 49.69397 | 34997 ft | 468 kts | 230° |
| 2026-04-25 19:12 | 11.44147 | 49.64475 | 34997 ft | 468 kts | 230° |
| 2026-04-25 19:13 | 11.39818 | 49.59599 | 34997 ft | 468 kts | 230° |
| 2026-04-25 19:13 | 11.35338 | 49.54789 | 34997 ft | 469 kts | 227° |
| 2026-04-25 19:14 | 11.30700 | 49.50115 | 34997 ft | 469 kts | 227° |
| 2026-04-25 19:14 | 11.26082 | 49.45439 | 34997 ft | 469 kts | 227° |
| 2026-04-25 19:15 | 11.21470 | 49.40739 | 34997 ft | 469 kts | 227° |
| 2026-04-25 19:15 | 11.16871 | 49.36043 | 34997 ft | 469 kts | 227° |
| 2026-04-25 19:16 | 11.12300 | 49.31361 | 34997 ft | 468 kts | 227° |
| 2026-04-25 19:16 | 11.07714 | 49.26663 | 34997 ft | 468 kts | 227° |
| 2026-04-25 19:17 | 11.03129 | 49.21972 | 34997 ft | 468 kts | 227° |
| 2026-04-25 19:17 | 10.98517 | 49.17258 | 34997 ft | 468 kts | 227° |
| 2026-04-25 19:18 | 10.93920 | 49.12562 | 34997 ft | 468 kts | 227° |
| 2026-04-25 19:18 | 10.89325 | 49.07869 | 34997 ft | 469 kts | 227° |
| 2026-04-25 19:19 | 10.84752 | 49.03203 | 34997 ft | 468 kts | 227° |
| 2026-04-25 19:19 | 10.80146 | 48.98504 | 34997 ft | 468 kts | 227° |
| 2026-04-25 19:20 | 10.75552 | 48.93820 | 34997 ft | 468 kts | 227° |
| 2026-04-25 19:20 | 10.70948 | 48.89128 | 34997 ft | 468 kts | 227° |
| 2026-04-25 19:21 | 10.66343 | 48.84437 | 34997 ft | 468 kts | 227° |
| 2026-04-25 19:21 | 10.59471 | 48.77441 | 34997 ft | 468 kts | 227° |
| 2026-04-25 19:22 | 10.54864 | 48.72753 | 34997 ft | 469 kts | 227° |
| 2026-04-25 19:23 | 10.47981 | 48.65753 | 34997 ft | 469 kts | 227° |
| 2026-04-25 19:23 | 10.41074 | 48.58733 | 34997 ft | 468 kts | 227° |
| 2026-04-25 19:24 | 10.36470 | 48.54058 | 34997 ft | 468 kts | 227° |
| 2026-04-25 19:25 | 10.27256 | 48.44704 | 34997 ft | 468 kts | 227° |
| 2026-04-25 19:25 | 10.22648 | 48.40031 | 34997 ft | 468 kts | 227° |
| 2026-04-25 19:26 | 10.18062 | 48.35381 | 34997 ft | 468 kts | 227° |
| 2026-04-25 19:26 | 10.13453 | 48.30709 | 34997 ft | 468 kts | 227° |
| 2026-04-25 19:27 | 10.09625 | 48.26831 | 34997 ft | 468 kts | 227° |
| 2026-04-25 19:27 | 10.04230 | 48.21368 | 34997 ft | 468 kts | 227° |
| 2026-04-25 19:28 | 9.99617 | 48.16699 | 34997 ft | 469 kts | 227° |
| 2026-04-25 19:28 | 9.95001 | 48.12028 | 34997 ft | 469 kts | 227° |
| 2026-04-25 19:29 | 9.90411 | 48.07386 | 34997 ft | 468 kts | 227° |
| 2026-04-25 19:29 | 9.85796 | 48.02720 | 34997 ft | 468 kts | 227° |
| 2026-04-25 19:30 | 9.81968 | 47.98852 | 34997 ft | 468 kts | 227° |
| 2026-04-25 19:30 | 9.76542 | 47.93371 | 34997 ft | 468 kts | 227° |
| 2026-04-25 19:31 | 9.71930 | 47.88714 | 34997 ft | 468 kts | 227° |
| 2026-04-25 19:31 | 9.67347 | 47.84089 | 34997 ft | 468 kts | 227° |
| 2026-04-25 19:32 | 9.62726 | 47.79426 | 34997 ft | 469 kts | 227° |
| 2026-04-25 19:32 | 9.59637 | 47.76312 | 34997 ft | 469 kts | 227° |
| 2026-04-25 19:33 | 9.53483 | 47.70107 | 34997 ft | 469 kts | 227° |
| 2026-04-25 19:33 | 9.48864 | 47.65453 | 34997 ft | 468 kts | 227° |
| 2026-04-25 19:34 | 9.44253 | 47.60808 | 34997 ft | 468 kts | 227° |
| 2026-04-25 19:34 | 9.39639 | 47.56157 | 34997 ft | 468 kts | 227° |
| 2026-04-25 19:35 | 9.35013 | 47.51499 | 34997 ft | 468 kts | 227° |
| 2026-04-25 19:35 | 9.30422 | 47.46882 | 34997 ft | 468 kts | 227° |
| 2026-04-25 19:36 | 9.25799 | 47.42235 | 34997 ft | 468 kts | 227° |
| 2026-04-25 19:36 | 9.21173 | 47.37586 | 34997 ft | 468 kts | 227° |
| 2026-04-25 19:37 | 9.16585 | 47.32917 | 34997 ft | 468 kts | 228° |
| 2026-04-25 19:37 | 9.12074 | 47.28147 | 34997 ft | 468 kts | 228° |
| 2026-04-25 19:38 | 9.07609 | 47.23433 | 34997 ft | 468 kts | 228° |
| 2026-04-25 19:38 | 9.03097 | 47.18682 | 34997 ft | 468 kts | 228° |
| 2026-04-25 19:39 | 8.98588 | 47.13940 | 34997 ft | 468 kts | 228° |
| 2026-04-25 19:39 | 8.94084 | 47.09203 | 34997 ft | 468 kts | 228° |
| 2026-04-25 19:40 | 8.89568 | 47.04447 | 34997 ft | 468 kts | 228° |
| 2026-04-25 19:40 | 8.85087 | 46.99734 | 34997 ft | 468 kts | 228° |
| 2026-04-25 19:41 | 8.80568 | 46.94986 | 34997 ft | 468 kts | 228° |
| 2026-04-25 19:41 | 8.77551 | 46.91818 | 34997 ft | 468 kts | 228° |
| 2026-04-25 19:42 | 8.71545 | 46.85514 | 34997 ft | 468 kts | 228° |
| 2026-04-25 19:42 | 8.67026 | 46.80771 | 34997 ft | 468 kts | 228° |
| 2026-04-25 19:43 | 8.62514 | 46.76038 | 34997 ft | 468 kts | 228° |
| 2026-04-25 19:43 | 8.58024 | 46.71331 | 34997 ft | 468 kts | 228° |
| 2026-04-25 19:44 | 8.53505 | 46.66594 | 34997 ft | 468 kts | 228° |
| 2026-04-25 19:44 | 8.48990 | 46.61862 | 34997 ft | 468 kts | 228° |
| 2026-04-25 19:45 | 8.44469 | 46.57127 | 34997 ft | 468 kts | 228° |
| 2026-04-25 19:45 | 8.39947 | 46.52385 | 34997 ft | 468 kts | 228° |
| 2026-04-25 19:46 | 8.35428 | 46.47656 | 34997 ft | 468 kts | 228° |
| 2026-04-25 19:46 | 8.30945 | 46.42967 | 34997 ft | 468 kts | 228° |
| 2026-04-25 19:47 | 8.26418 | 46.38233 | 34997 ft | 468 kts | 228° |
| 2026-04-25 19:47 | 8.21899 | 46.33510 | 34997 ft | 468 kts | 228° |
| 2026-04-25 19:48 | 8.17409 | 46.28744 | 34997 ft | 468 kts | 229° |
| 2026-04-25 19:48 | 8.12939 | 46.23985 | 34997 ft | 467 kts | 229° |
| 2026-04-25 19:49 | 8.09975 | 46.20831 | 34997 ft | 467 kts | 229° |
| 2026-04-25 19:49 | 8.04021 | 46.14500 | 34997 ft | 468 kts | 229° |
| 2026-04-25 19:50 | 7.97298 | 46.07351 | 34997 ft | 468 kts | 229° |
| 2026-04-25 19:51 | 7.92816 | 46.02580 | 34997 ft | 468 kts | 229° |
| 2026-04-25 19:51 | 7.88374 | 45.97854 | 34997 ft | 467 kts | 229° |
| 2026-04-25 19:52 | 7.83912 | 45.93110 | 34997 ft | 467 kts | 229° |
| 2026-04-25 19:52 | 7.79425 | 45.88348 | 34997 ft | 467 kts | 228° |
| 2026-04-25 19:53 | 7.74946 | 45.83595 | 34997 ft | 467 kts | 228° |
| 2026-04-25 19:53 | 7.71227 | 45.79649 | 34997 ft | 468 kts | 228° |
| 2026-04-25 19:54 | 7.66021 | 45.74132 | 34997 ft | 468 kts | 228° |
| 2026-04-25 19:54 | 7.61521 | 45.69375 | 34997 ft | 468 kts | 228° |
| 2026-04-25 19:55 | 7.57035 | 45.64633 | 34997 ft | 468 kts | 228° |
| 2026-04-25 19:55 | 7.53293 | 45.60678 | 34997 ft | 468 kts | 228° |
| 2026-04-25 19:56 | 7.48078 | 45.55168 | 34997 ft | 468 kts | 228° |
| 2026-04-25 19:56 | 7.43585 | 45.50421 | 34997 ft | 468 kts | 228° |
| 2026-04-25 19:57 | 7.39098 | 45.45671 | 34997 ft | 468 kts | 228° |
| 2026-04-25 19:57 | 7.35364 | 45.41723 | 34997 ft | 468 kts | 228° |
| 2026-04-25 19:58 | 7.30877 | 45.36984 | 34997 ft | 468 kts | 228° |
| 2026-04-25 19:58 | 7.25626 | 45.31440 | 34997 ft | 468 kts | 228° |
| 2026-04-25 19:59 | 7.21161 | 45.26728 | 34997 ft | 468 kts | 228° |
| 2026-04-25 19:59 | 7.17423 | 45.22784 | 34997 ft | 468 kts | 228° |
| 2026-04-25 20:00 | 7.12175 | 45.17249 | 34997 ft | 468 kts | 228° |
| 2026-04-25 20:00 | 7.08440 | 45.13310 | 34997 ft | 468 kts | 228° |
| 2026-04-25 20:01 | 7.01698 | 45.06203 | 34997 ft | 468 kts | 228° |
| 2026-04-25 20:01 | 6.97227 | 45.01492 | 34997 ft | 468 kts | 228° |
| 2026-04-25 20:02 | 6.92737 | 44.96759 | 34997 ft | 468 kts | 228° |
| 2026-04-25 20:02 | 6.88245 | 44.92024 | 34997 ft | 468 kts | 228° |
| 2026-04-25 20:03 | 6.83746 | 44.87290 | 34997 ft | 468 kts | 228° |
| 2026-04-25 20:03 | 6.79250 | 44.82559 | 34997 ft | 468 kts | 228° |
| 2026-04-25 20:04 | 6.74778 | 44.77855 | 34997 ft | 468 kts | 228° |
| 2026-04-25 20:04 | 6.70285 | 44.73132 | 34997 ft | 468 kts | 228° |
| 2026-04-25 20:05 | 6.65769 | 44.68405 | 34997 ft | 468 kts | 228° |
| 2026-04-25 20:05 | 6.61267 | 44.63691 | 34997 ft | 468 kts | 228° |
| 2026-04-25 20:06 | 6.56759 | 44.58971 | 34997 ft | 468 kts | 228° |
| 2026-04-25 20:06 | 6.52250 | 44.54252 | 34997 ft | 468 kts | 228° |
| 2026-04-25 20:07 | 6.47741 | 44.49534 | 34997 ft | 468 kts | 228° |
| 2026-04-25 20:07 | 6.43272 | 44.44848 | 34997 ft | 468 kts | 228° |
| 2026-04-25 20:08 | 6.38765 | 44.40129 | 34997 ft | 468 kts | 228° |
| 2026-04-25 20:08 | 6.34254 | 44.35408 | 34997 ft | 468 kts | 228° |
| 2026-04-25 20:09 | 6.29750 | 44.30697 | 34997 ft | 467 kts | 228° |
| 2026-04-25 20:09 | 6.25247 | 44.25988 | 34997 ft | 468 kts | 228° |
| 2026-04-25 20:10 | 6.20732 | 44.21268 | 34997 ft | 468 kts | 228° |
| 2026-04-25 20:10 | 6.16249 | 44.16583 | 34997 ft | 468 kts | 228° |
| 2026-04-25 20:11 | 6.11744 | 44.11876 | 34997 ft | 467 kts | 228° |
| 2026-04-25 20:11 | 6.07235 | 44.07165 | 34997 ft | 467 kts | 228° |
| 2026-04-25 20:12 | 6.02728 | 44.02459 | 34997 ft | 468 kts | 228° |
| 2026-04-25 20:12 | 5.98974 | 43.98539 | 34997 ft | 468 kts | 228° |
| 2026-04-25 20:13 | 5.93731 | 43.93066 | 34997 ft | 468 kts | 228° |
| 2026-04-25 20:13 | 5.89223 | 43.88360 | 34997 ft | 468 kts | 228° |
| 2026-04-25 20:14 | 5.84715 | 43.83652 | 34997 ft | 468 kts | 228° |
| 2026-04-25 20:14 | 5.80194 | 43.78937 | 34997 ft | 468 kts | 228° |
| 2026-04-25 20:15 | 5.75711 | 43.74264 | 34997 ft | 468 kts | 228° |
| 2026-04-25 20:15 | 5.71198 | 43.69560 | 34997 ft | 468 kts | 228° |
| 2026-04-25 20:16 | 5.66679 | 43.64853 | 34996 ft | 468 kts | 228° |
| 2026-04-25 20:16 | 5.62149 | 43.60159 | 34997 ft | 468 kts | 228° |
| 2026-04-25 20:17 | 5.57627 | 43.55473 | 34997 ft | 467 kts | 228° |
| 2026-04-25 20:17 | 5.53102 | 43.50783 | 34997 ft | 467 kts | 228° |
| 2026-04-25 20:18 | 5.48605 | 43.46123 | 34997 ft | 467 kts | 228° |
| 2026-04-25 20:18 | 5.44088 | 43.41444 | 34997 ft | 467 kts | 228° |
| 2026-04-25 20:19 | 5.39571 | 43.36757 | 34997 ft | 468 kts | 228° |
| 2026-04-25 20:19 | 5.35036 | 43.32055 | 34997 ft | 468 kts | 228° |
| 2026-04-25 20:20 | 5.30513 | 43.27369 | 34997 ft | 468 kts | 228° |
| 2026-04-25 20:20 | 5.25983 | 43.22677 | 34997 ft | 468 kts | 228° |
| 2026-04-25 20:21 | 5.21459 | 43.17992 | 34997 ft | 467 kts | 228° |
| 2026-04-25 20:21 | 5.16965 | 43.13340 | 34997 ft | 467 kts | 228° |
| 2026-04-25 20:22 | 5.13181 | 43.09424 | 34997 ft | 468 kts | 228° |
| 2026-04-25 20:22 | 5.07908 | 43.03967 | 34997 ft | 468 kts | 228° |
| 2026-04-25 20:23 | 5.03380 | 42.99283 | 34997 ft | 468 kts | 228° |
| 2026-04-25 20:23 | 4.98850 | 42.94598 | 34997 ft | 468 kts | 228° |
| 2026-04-25 20:24 | 4.94326 | 42.89920 | 34997 ft | 468 kts | 228° |
| 2026-04-25 20:24 | 4.89822 | 42.85263 | 34997 ft | 468 kts | 228° |
| 2026-04-25 20:25 | 4.85263 | 42.80551 | 34997 ft | 468 kts | 228° |
| 2026-04-25 20:25 | 4.80766 | 42.75903 | 34997 ft | 468 kts | 228° |
| 2026-04-25 20:26 | 4.76240 | 42.71227 | 34997 ft | 468 kts | 228° |
| 2026-04-25 20:26 | 4.71709 | 42.66546 | 34997 ft | 467 kts | 228° |
| 2026-04-25 20:27 | 4.67177 | 42.61865 | 34997 ft | 468 kts | 228° |
| 2026-04-25 20:27 | 4.62678 | 42.57219 | 34997 ft | 468 kts | 228° |
| 2026-04-25 20:28 | 4.58145 | 42.52539 | 34997 ft | 468 kts | 228° |
| 2026-04-25 20:28 | 4.53608 | 42.47856 | 34997 ft | 468 kts | 228° |
| 2026-04-25 20:29 | 4.49078 | 42.43180 | 34997 ft | 468 kts | 228° |
| 2026-04-25 20:29 | 4.44571 | 42.38530 | 34997 ft | 467 kts | 228° |
| 2026-04-25 20:30 | 4.40042 | 42.33857 | 34997 ft | 467 kts | 228° |
| 2026-04-25 20:30 | 4.35514 | 42.29187 | 34997 ft | 468 kts | 228° |
| 2026-04-25 20:31 | 4.30984 | 42.24516 | 34997 ft | 467 kts | 228° |
| 2026-04-25 20:31 | 4.26480 | 42.19871 | 34997 ft | 467 kts | 228° |
| 2026-04-25 20:32 | 4.21950 | 42.15201 | 34997 ft | 468 kts | 228° |
| 2026-04-25 20:32 | 4.17412 | 42.10523 | 34997 ft | 468 kts | 228° |
| 2026-04-25 20:33 | 4.12881 | 42.05850 | 34997 ft | 468 kts | 228° |
| 2026-04-25 20:33 | 4.09114 | 42.01968 | 34997 ft | 468 kts | 228° |
| 2026-04-25 20:34 | 4.03805 | 41.96499 | 34997 ft | 468 kts | 228° |
| 2026-04-25 20:34 | 3.99301 | 41.91860 | 34997 ft | 468 kts | 228° |
| 2026-04-25 20:35 | 3.94761 | 41.87188 | 34997 ft | 468 kts | 227° |
| 2026-04-25 20:35 | 3.89925 | 41.82794 | 34997 ft | 470 kts | 222° |
| 2026-04-25 20:36 | 3.84808 | 41.78707 | 34997 ft | 470 kts | 220° |
| 2026-04-25 20:36 | 3.79690 | 41.74636 | 34997 ft | 470 kts | 221° |
| 2026-04-25 20:37 | 3.74642 | 41.70545 | 34997 ft | 470 kts | 221° |
| 2026-04-25 20:37 | 3.69544 | 41.66388 | 34997 ft | 470 kts | 221° |
| 2026-04-25 20:38 | 3.64516 | 41.62277 | 34997 ft | 470 kts | 221° |
| 2026-04-25 20:38 | 3.59456 | 41.58136 | 34997 ft | 470 kts | 221° |
| 2026-04-25 20:39 | 3.54395 | 41.53996 | 34997 ft | 470 kts | 221° |
| 2026-04-25 20:39 | 3.50188 | 41.50556 | 34997 ft | 470 kts | 221° |
| 2026-04-25 20:40 | 3.44267 | 41.45714 | 34997 ft | 470 kts | 221° |
| 2026-04-25 20:40 | 3.39225 | 41.41591 | 34997 ft | 470 kts | 221° |
| 2026-04-25 20:41 | 3.34169 | 41.37458 | 34997 ft | 470 kts | 221° |
| 2026-04-25 20:41 | 3.29133 | 41.33342 | 34997 ft | 470 kts | 221° |
| 2026-04-25 20:42 | 3.24086 | 41.29217 | 34997 ft | 470 kts | 221° |
| 2026-04-25 20:42 | 3.18975 | 41.25041 | 34997 ft | 477 kts | 221° |
| 2026-04-25 20:43 | 3.13814 | 41.20823 | 34997 ft | 480 kts | 221° |
| 2026-04-25 20:43 | 3.08684 | 41.16632 | 34997 ft | 479 kts | 221° |
| 2026-04-25 20:44 | 3.03488 | 41.12388 | 34997 ft | 480 kts | 221° |
| 2026-04-25 20:44 | 2.98351 | 41.08192 | 34997 ft | 480 kts | 221° |
| 2026-04-25 20:45 | 2.93183 | 41.03972 | 34997 ft | 479 kts | 221° |
| 2026-04-25 20:45 | 2.88018 | 40.99754 | 34997 ft | 480 kts | 221° |
| 2026-04-25 20:46 | 2.82829 | 40.95517 | 34997 ft | 480 kts | 221° |
| 2026-04-25 20:46 | 2.77695 | 40.91326 | 34997 ft | 480 kts | 221° |
| 2026-04-25 20:47 | 2.72521 | 40.87103 | 34997 ft | 480 kts | 221° |
| 2026-04-25 20:47 | 2.67352 | 40.82884 | 34997 ft | 480 kts | 221° |
| 2026-04-25 20:48 | 2.62197 | 40.78675 | 34997 ft | 480 kts | 221° |
| 2026-04-25 20:48 | 2.57009 | 40.74441 | 34997 ft | 480 kts | 221° |
| 2026-04-25 20:49 | 2.51863 | 40.70242 | 34997 ft | 480 kts | 221° |
| 2026-04-25 20:49 | 2.46705 | 40.66034 | 34997 ft | 480 kts | 221° |
| 2026-04-25 20:50 | 2.41518 | 40.61804 | 34997 ft | 480 kts | 221° |
| 2026-04-25 20:50 | 2.36322 | 40.57619 | 34994 ft | 480 kts | 221° |
| 2026-04-25 20:51 | 2.31150 | 40.53469 | 34997 ft | 480 kts | 221° |
| 2026-04-25 20:51 | 2.25957 | 40.49303 | 34997 ft | 480 kts | 221° |
| 2026-04-25 20:52 | 2.21614 | 40.45820 | 34997 ft | 480 kts | 221° |
| 2026-04-25 20:52 | 2.15551 | 40.40958 | 34997 ft | 480 kts | 221° |
| 2026-04-25 20:53 | 2.10358 | 40.36792 | 34997 ft | 480 kts | 221° |
| 2026-04-25 20:53 | 2.05112 | 40.32584 | 34997 ft | 480 kts | 221° |
| 2026-04-25 20:54 | 1.99938 | 40.28435 | 34997 ft | 480 kts | 221° |
| 2026-04-25 20:54 | 1.94733 | 40.24260 | 34997 ft | 480 kts | 221° |
| 2026-04-25 20:55 | 1.89525 | 40.20085 | 34997 ft | 480 kts | 221° |
| 2026-04-25 20:55 | 1.84314 | 40.15908 | 34997 ft | 480 kts | 221° |
| 2026-04-25 20:56 | 1.79110 | 40.11736 | 34997 ft | 480 kts | 221° |
| 2026-04-25 20:56 | 1.73919 | 40.07535 | 34997 ft | 479 kts | 223° |
| 2026-04-25 20:57 | 1.69082 | 40.03042 | 34997 ft | 478 kts | 226° |
| 2026-04-25 20:57 | 1.64377 | 39.98342 | 34997 ft | 478 kts | 227° |
| 2026-04-25 20:58 | 1.59646 | 39.93674 | 34997 ft | 478 kts | 226° |
| 2026-04-25 20:58 | 1.54891 | 39.89038 | 34997 ft | 478 kts | 226° |
| 2026-04-25 20:59 | 1.50118 | 39.84404 | 34997 ft | 478 kts | 226° |
| 2026-04-25 20:59 | 1.45379 | 39.79807 | 34997 ft | 478 kts | 226° |
| 2026-04-25 21:00 | 1.42185 | 39.76711 | 34997 ft | 478 kts | 226° |
| 2026-04-25 21:01 | 1.33468 | 39.68267 | 34997 ft | 478 kts | 226° |
| 2026-04-25 21:01 | 1.28700 | 39.63650 | 34997 ft | 478 kts | 226° |
| 2026-04-25 21:02 | 1.23928 | 39.59029 | 34997 ft | 477 kts | 226° |
| 2026-04-25 21:02 | 1.19157 | 39.54409 | 34997 ft | 477 kts | 226° |
| 2026-04-25 21:03 | 1.14388 | 39.49791 | 34997 ft | 477 kts | 226° |
| 2026-04-25 21:03 | 1.09625 | 39.45179 | 34997 ft | 478 kts | 226° |
| 2026-04-25 21:04 | 1.04852 | 39.40557 | 34997 ft | 478 kts | 226° |
| 2026-04-25 21:04 | 1.00069 | 39.35927 | 34997 ft | 478 kts | 226° |
| 2026-04-25 21:05 | 0.95297 | 39.31308 | 34997 ft | 478 kts | 226° |
| 2026-04-25 21:05 | 0.90555 | 39.26716 | 34997 ft | 478 kts | 226° |
| 2026-04-25 21:06 | 0.85780 | 39.22094 | 34997 ft | 478 kts | 226° |
| 2026-04-25 21:06 | 0.81017 | 39.17484 | 34997 ft | 478 kts | 226° |
| 2026-04-25 21:07 | 0.76233 | 39.12853 | 34997 ft | 478 kts | 226° |
| 2026-04-25 21:07 | 0.71463 | 39.08236 | 34997 ft | 478 kts | 226° |
| 2026-04-25 21:08 | 0.66722 | 39.03647 | 34997 ft | 478 kts | 226° |
| 2026-04-25 21:08 | 0.61942 | 38.99021 | 34997 ft | 478 kts | 226° |
| 2026-04-25 21:09 | 0.54787 | 38.92095 | 34997 ft | 478 kts | 226° |
| 2026-04-25 21:09 | 0.50014 | 38.87476 | 34997 ft | 478 kts | 226° |
| 2026-04-25 21:10 | 0.45267 | 38.82882 | 34997 ft | 478 kts | 226° |
| 2026-04-25 21:10 | 0.40494 | 38.78263 | 34997 ft | 479 kts | 226° |
| 2026-04-25 21:11 | 0.35698 | 38.73621 | 34997 ft | 478 kts | 226° |
| 2026-04-25 21:11 | 0.30923 | 38.69000 | 34997 ft | 478 kts | 226° |
| 2026-04-25 21:12 | 0.26174 | 38.64405 | 34997 ft | 478 kts | 226° |
| 2026-04-25 21:12 | 0.22176 | 38.60536 | 34997 ft | 478 kts | 226° |
| 2026-04-25 21:13 | 0.16630 | 38.55168 | 34997 ft | 478 kts | 226° |
| 2026-04-25 21:13 | 0.11857 | 38.50549 | 34997 ft | 479 kts | 226° |
| 2026-04-25 21:14 | 0.07074 | 38.45921 | 34997 ft | 478 kts | 226° |
| 2026-04-25 21:14 | 0.02296 | 38.41298 | 34997 ft | 478 kts | 226° |
| 2026-04-25 21:15 | -0.02459 | 38.36696 | 34997 ft | 478 kts | 226° |
| 2026-04-25 21:15 | -0.07242 | 38.32067 | 34997 ft | 478 kts | 226° |
| 2026-04-25 21:16 | -0.12015 | 38.27448 | 34997 ft | 478 kts | 226° |
| 2026-04-25 21:16 | -0.16767 | 38.22850 | 34997 ft | 478 kts | 226° |
| 2026-04-25 21:17 | -0.21541 | 38.18230 | 34997 ft | 478 kts | 226° |
| 2026-04-25 21:17 | -0.26313 | 38.13611 | 34997 ft | 478 kts | 226° |
| 2026-04-25 21:18 | -0.31121 | 38.08959 | 34997 ft | 478 kts | 226° |
| 2026-04-25 21:18 | -0.35907 | 38.04327 | 34997 ft | 478 kts | 226° |
| 2026-04-25 21:19 | -0.40572 | 37.99812 | 34539 ft | 462 kts | 226° |
| 2026-04-25 21:19 | -0.42883 | 37.97575 | 33777 ft | 463 kts | 226° |
| 2026-04-25 21:19 | -0.45202 | 37.95332 | 32846 ft | 468 kts | 226° |
| 2026-04-25 21:20 | -0.47549 | 37.93060 | 31982 ft | 471 kts | 226° |
| 2026-04-25 21:20 | -0.48317 | 37.92316 | 31738 ft | 471 kts | 226° |
| 2026-04-25 21:20 | -0.52233 | 37.88527 | 30678 ft | 466 kts | 226° |
| 2026-04-25 21:20 | -0.54564 | 37.86271 | 30120 ft | 462 kts | 226° |
| 2026-04-25 21:21 | -0.56854 | 37.84054 | 29578 ft | 457 kts | 226° |
| 2026-04-25 21:21 | -0.59127 | 37.81855 | 29033 ft | 453 kts | 226° |
| 2026-04-25 21:21 | -0.61354 | 37.79699 | 28493 ft | 450 kts | 226° |
| 2026-04-25 21:21 | -0.63583 | 37.77541 | 27956 ft | 446 kts | 226° |
| 2026-04-25 21:22 | -0.65812 | 37.75384 | 27414 ft | 442 kts | 226° |
| 2026-04-25 21:22 | -0.67999 | 37.73267 | 26880 ft | 438 kts | 226° |
| 2026-04-25 21:22 | -0.70181 | 37.71155 | 26347 ft | 435 kts | 226° |
| 2026-04-25 21:22 | -0.72338 | 37.69067 | 25814 ft | 431 kts | 226° |
| 2026-04-25 21:23 | -0.74485 | 37.66989 | 25283 ft | 428 kts | 226° |
| 2026-04-25 21:23 | -0.76614 | 37.64928 | 24756 ft | 424 kts | 226° |
| 2026-04-25 21:23 | -0.78733 | 37.62877 | 24238 ft | 421 kts | 226° |
| 2026-04-25 21:23 | -0.80818 | 37.60858 | 23717 ft | 417 kts | 226° |
| 2026-04-25 21:24 | -0.82905 | 37.58838 | 23199 ft | 414 kts | 226° |
| 2026-04-25 21:24 | -0.84959 | 37.56850 | 22689 ft | 411 kts | 226° |
| 2026-04-25 21:24 | -0.86996 | 37.54878 | 22184 ft | 407 kts | 226° |
| 2026-04-25 21:24 | -0.89002 | 37.52936 | 21683 ft | 404 kts | 226° |
| 2026-04-25 21:25 | -0.91022 | 37.50980 | 21182 ft | 401 kts | 226° |
| 2026-04-25 21:25 | -0.93009 | 37.49056 | 20685 ft | 398 kts | 226° |
| 2026-04-25 21:25 | -0.94993 | 37.47136 | 20190 ft | 395 kts | 226° |
| 2026-04-25 21:25 | -0.96960 | 37.45232 | 19700 ft | 392 kts | 226° |
| 2026-04-25 21:26 | -0.98917 | 37.43337 | 19227 ft | 389 kts | 226° |
| 2026-04-25 21:26 | -1.00854 | 37.41461 | 18752 ft | 386 kts | 226° |
| 2026-04-25 21:26 | -1.02774 | 37.39603 | 18281 ft | 383 kts | 226° |
| 2026-04-25 21:26 | -1.04676 | 37.37761 | 17812 ft | 380 kts | 226° |
| 2026-04-25 21:27 | -1.06569 | 37.35929 | 17333 ft | 377 kts | 226° |
| 2026-04-25 21:27 | -1.08417 | 37.34139 | 16880 ft | 374 kts | 226° |
| 2026-04-25 21:27 | -1.10266 | 37.32349 | 16428 ft | 371 kts | 226° |
| 2026-04-25 21:27 | -1.12099 | 37.30573 | 16272 ft | 359 kts | 226° |
| 2026-04-25 21:28 | -1.13865 | 37.28863 | 16091 ft | 349 kts | 226° |
| 2026-04-25 21:28 | -1.15586 | 37.27197 | 15802 ft | 342 kts | 226° |
| 2026-04-25 21:28 | -1.17289 | 37.25547 | 15421 ft | 338 kts | 226° |
| 2026-04-25 21:28 | -1.18971 | 37.23917 | 15019 ft | 336 kts | 226° |
| 2026-04-25 21:29 | -1.20622 | 37.22319 | 14835 ft | 326 kts | 226° |
| 2026-04-25 21:29 | -1.22196 | 37.20794 | 14734 ft | 315 kts | 226° |
| 2026-04-25 21:29 | -1.23754 | 37.19285 | 14549 ft | 307 kts | 226° |
| 2026-04-25 21:29 | -1.25279 | 37.17809 | 14278 ft | 303 kts | 226° |
| 2026-04-25 21:30 | -1.26792 | 37.16343 | 13956 ft | 300 kts | 227° |
| 2026-04-25 21:30 | -1.28212 | 37.14826 | 13620 ft | 297 kts | 231° |
| 2026-04-25 21:30 | -1.29510 | 37.13232 | 13241 ft | 297 kts | 234° |
| 2026-04-25 21:30 | -1.30339 | 37.12137 | 13019 ft | 295 kts | 236° |
| 2026-04-25 21:31 | -1.31916 | 37.09937 | 12552 ft | 294 kts | 237° |
| 2026-04-25 21:31 | -1.33086 | 37.08274 | 12191 ft | 293 kts | 237° |
| 2026-04-25 21:31 | -1.34265 | 37.06619 | 11833 ft | 293 kts | 237° |
| 2026-04-25 21:31 | -1.35451 | 37.04973 | 11478 ft | 292 kts | 237° |
| 2026-04-25 21:32 | -1.36646 | 37.03325 | 11204 ft | 286 kts | 237° |
| 2026-04-25 21:32 | -1.37780 | 37.01767 | 11075 ft | 267 kts | 237° |
| 2026-04-25 21:32 | -1.38824 | 37.00336 | 10944 ft | 248 kts | 237° |
| 2026-04-25 21:32 | -1.39804 | 36.98994 | 10933 ft | 229 kts | 237° |
| 2026-04-25 21:33 | -1.40738 | 36.97716 | 10908 ft | 229 kts | 237° |
| 2026-04-25 21:33 | -1.41713 | 36.96382 | 10886 ft | 241 kts | 237° |
| 2026-04-25 21:33 | -1.42701 | 36.95031 | 10892 ft | 245 kts | 237° |
| 2026-04-25 21:33 | -1.43697 | 36.93669 | 10911 ft | 244 kts | 236° |
| 2026-04-25 21:34 | -1.44709 | 36.92285 | 10724 ft | 248 kts | 236° |
| 2026-04-25 21:34 | -1.45722 | 36.90900 | 10528 ft | 248 kts | 236° |
| 2026-04-25 21:34 | -1.46738 | 36.89511 | 10326 ft | 246 kts | 235° |
| 2026-04-25 21:34 | -1.47745 | 36.88133 | 10125 ft | 244 kts | 235° |
| 2026-04-25 21:35 | -1.48746 | 36.86766 | 9925 ft | 244 kts | 235° |
| 2026-04-25 21:35 | -1.49732 | 36.85419 | 9727 ft | 243 kts | 235° |
| 2026-04-25 21:35 | -1.50730 | 36.84055 | 9527 ft | 243 kts | 235° |
| 2026-04-25 21:35 | -1.51725 | 36.82698 | 9326 ft | 242 kts | 234° |
| 2026-04-25 21:36 | -1.52741 | 36.81353 | 9126 ft | 241 kts | 234° |
| 2026-04-25 21:36 | -1.53750 | 36.80022 | 8926 ft | 240 kts | 234° |
| 2026-04-25 21:36 | -1.54514 | 36.78585 | 8705 ft | 232 kts | 254° |
| 2026-04-25 21:36 | -1.54462 | 36.77013 | 8493 ft | 227 kts | 284° |
| 2026-04-25 21:37 | -1.53601 | 36.75711 | 8304 ft | 227 kts | 314° |
| 2026-04-25 21:37 | -1.53214 | 36.75384 | 8256 ft | 227 kts | 319° |
| 2026-04-25 21:37 | -1.51066 | 36.73800 | 8009 ft | 227 kts | 325° |
| 2026-04-25 21:37 | -1.49649 | 36.73163 | 7958 ft | 228 kts | 346° |
| 2026-04-25 21:38 | -1.48089 | 36.73223 | 7999 ft | 227 kts | 11° |
| 2026-04-25 21:38 | -1.46636 | 36.73840 | 8003 ft | 228 kts | 29° |
| 2026-04-25 21:38 | -1.45403 | 36.74831 | 8000 ft | 227 kts | 43° |
| 2026-04-25 21:38 | -1.44676 | 36.75583 | 8000 ft | 228 kts | 46° |
| 2026-04-25 21:39 | -1.43298 | 36.77182 | 7997 ft | 227 kts | 51° |
| 2026-04-25 21:39 | -1.42662 | 36.78016 | 8012 ft | 223 kts | 53° |
| 2026-04-25 21:39 | -1.41494 | 36.79625 | 7998 ft | 206 kts | 54° |
| 2026-04-25 21:39 | -1.40675 | 36.80755 | 7980 ft | 196 kts | 54° |
| 2026-04-25 21:40 | -1.40150 | 36.81477 | 7828 ft | 192 kts | 54° |
| 2026-04-25 21:40 | -1.39379 | 36.82538 | 7527 ft | 184 kts | 54° |
| 2026-04-25 21:40 | -1.38638 | 36.83557 | 7300 ft | 176 kts | 54° |
| 2026-04-25 21:40 | -1.37694 | 36.84856 | 6971 ft | 174 kts | 54° |
| 2026-04-25 21:41 | -1.37214 | 36.85514 | 6815 ft | 174 kts | 54° |
| 2026-04-25 21:41 | -1.36522 | 36.86465 | 6581 ft | 165 kts | 54° |
| 2026-04-25 21:41 | -1.35856 | 36.87380 | 6335 ft | 160 kts | 54° |
| 2026-04-25 21:41 | -1.35192 | 36.88280 | 6101 ft | 162 kts | 53° |
| 2026-04-25 21:42 | -1.34325 | 36.89473 | 5881 ft | 158 kts | 54° |
| 2026-04-25 21:42 | -1.33899 | 36.90074 | 5728 ft | 155 kts | 54° |
| 2026-04-25 21:42 | -1.33271 | 36.90953 | 5497 ft | 152 kts | 54° |
| 2026-04-25 21:42 | -1.32661 | 36.91771 | 5357 ft | 143 kts | 54° |
| 2026-04-25 21:43 | -1.32149 | 36.92479 | 5342 ft | 98 kts | 51° |
| 2026-04-25 21:43 | -1.31887 | 36.92843 | 5342 ft | 45 kts | 54° |
| 2026-04-25 21:43 | -1.31717 | 36.93072 | 5342 ft | 32 kts | 53° |
| 2026-04-25 21:43 | -1.31651 | 36.93162 | 5342 ft | 10 kts | 58° |
| 2026-04-25 21:44 | -1.31615 | 36.93214 | 5342 ft | 7 kts | 54° |
| 2026-04-25 21:44 | -1.31590 | 36.93247 | 5342 ft | 8 kts | 53° |
| 2026-04-25 21:44 | -1.31588 | 36.93341 | 5342 ft | 8 kts | 136° |
| 2026-04-25 21:45 | -1.31637 | 36.93382 | 5342 ft | 10 kts | 143° |
| 2026-04-25 21:45 | -1.31671 | 36.93407 | 5342 ft | 10 kts | 143° |
| 2026-04-25 21:45 | -1.31745 | 36.93462 | 5342 ft | 8 kts | 144° |
| 2026-04-25 21:45 | -1.31795 | 36.93487 | 5342 ft | 6 kts | 179° |
| 2026-04-25 21:46 | -1.31824 | 36.93472 | 5342 ft | 5 kts | 217° |
| 2026-04-25 21:46 | -1.31848 | 36.93446 | 5342 ft | 6 kts | 230° |
| 2026-04-25 21:46 | -1.31881 | 36.93403 | 5342 ft | 8 kts | 233° |
| 2026-04-25 21:46 | -1.31910 | 36.93363 | 5342 ft | 10 kts | 234° |
| 2026-04-25 21:47 | -1.31963 | 36.93289 | 5342 ft | 16 kts | 234° |
| 2026-04-25 21:47 | -1.32032 | 36.93195 | 5342 ft | 16 kts | 234° |
| 2026-04-25 21:47 | -1.32092 | 36.93112 | 5342 ft | 13 kts | 234° |
| 2026-04-25 21:47 | -1.32138 | 36.93049 | 5342 ft | 11 kts | 234° |
| 2026-04-25 21:48 | -1.32184 | 36.92986 | 5342 ft | 13 kts | 234° |
| 2026-04-25 21:48 | -1.32240 | 36.92907 | 5342 ft | 13 kts | 234° |
| 2026-04-25 21:48 | -1.32282 | 36.92850 | 5342 ft | 8 kts | 234° |
| 2026-04-25 21:48 | -1.32307 | 36.92815 | 5342 ft | 4 kts | 233° |
| 2026-04-25 21:49 | -1.32324 | 36.92793 | 5342 ft | 3 kts | 233° |
| 2026-04-25 21:49 | -1.32339 | 36.92772 | 5342 ft | 7 kts | 233° |
| 2026-04-25 21:49 | -1.32386 | 36.92708 | 5342 ft | 13 kts | 233° |
| 2026-04-25 21:49 | -1.32439 | 36.92636 | 5342 ft | 13 kts | 234° |
| 2026-04-25 21:50 | -1.32484 | 36.92573 | 5342 ft | 9 kts | 234° |
| 2026-04-25 21:50 | -1.32514 | 36.92531 | 5342 ft | 6 kts | 235° |
| 2026-04-25 21:50 | -1.32558 | 36.92468 | 5342 ft | 16 kts | 234° |
| 2026-04-25 21:50 | -1.32611 | 36.92394 | 5342 ft | 9 kts | 234° |
| 2026-04-25 21:51 | -1.32641 | 36.92358 | 5342 ft | 7 kts | 221° |
| 2026-04-25 21:51 | -1.32676 | 36.92353 | 5342 ft | 2 kts | 167° |
| 2026-04-25 21:51 | -1.32707 | 36.92369 | 5342 ft | 5 kts | 146° |
| 2026-04-25 21:51 | -1.32726 | 36.92382 | 5342 ft | 4 kts | 146° |
| 2026-04-25 21:52 | -1.32745 | 36.92395 | 5342 ft | 6 kts | 144° |
| 2026-04-25 21:52 | -1.32768 | 36.92445 | 5342 ft | 8 kts | 86° |
| 2026-04-25 21:52 | -1.32766 | 36.92482 | 5342 ft | 4 kts | 86° |
| 2026-04-25 21:52 | -1.32765 | 36.92536 | 5342 ft | 7 kts | 94° |
| 2026-04-25 21:53 | -1.32771 | 36.92554 | 5342 ft | 5 kts | 121° |
| 2026-04-25 21:53 | -1.32800 | 36.92563 | 5342 ft | 3 kts | 191° |
| 2026-04-25 21:53 | -1.32813 | 36.92560 | 5342 ft | 5 kts | 193° |
| 2026-04-25 21:53 | -1.32845 | 36.92552 | 5342 ft | 3 kts | 193° |
| 2026-04-25 21:54 | -1.32852 | 36.92550 | 5342 ft | 0 kts | 193° |
| 2026-04-25 21:54 | -1.32857 | 36.92549 | 5342 ft | 0 kts | 193° |